createdAt,value
2023-06-16T00:04:29.769Z,90.96
2023-06-16T00:14:31.835Z,91.64
2023-06-16T00:24:35.948Z,90.80
2023-06-16T00:34:37.849Z,91.48
2023-06-16T00:44:40.803Z,91.88
2023-06-16T00:54:44.114Z,93.09
2023-06-16T01:04:48.891Z,93.38
2023-06-16T01:15:05.870Z,93.31
2023-06-16T01:25:11.847Z,93.35
2023-06-16T01:35:17.600Z,93.25
2023-06-16T01:45:22.110Z,92.28
2023-06-16T01:55:24.150Z,92.59
2023-06-16T02:05:48.808Z,93.14
2023-06-16T02:15:52.238Z,92.89
2023-06-16T02:25:59.334Z,93.57
2023-06-16T02:36:02.240Z,93.91
2023-06-16T02:46:07.994Z,94.27
2023-06-16T02:56:09.894Z,93.58
2023-06-16T03:06:11.976Z,93.68
2023-06-16T03:16:14.039Z,92.37
2023-06-16T03:26:16.990Z,91.75
2023-06-16T03:36:19.590Z,90.31
2023-06-16T03:46:21.534Z,89.22
2023-06-16T03:56:23.552Z,84.49
2023-06-16T04:06:25.768Z,78.92
2023-06-16T04:16:27.859Z,76.38
2023-06-16T04:26:33.993Z,73.18
2023-06-16T04:36:36.104Z,73.07
2023-06-16T04:46:39.788Z,70.75
2023-06-16T04:56:41.793Z,69.05
2023-06-16T05:06:43.979Z,64.60
2023-06-16T05:16:45.996Z,62.50
2023-06-16T05:26:48.124Z,63.74
2023-06-16T05:36:50.247Z,60.64
2023-06-16T05:46:52.240Z,60.01
2023-06-16T05:56:55.353Z,59.38
2023-06-16T06:06:57.613Z,60.64
2023-06-16T06:16:59.905Z,56.05
2023-06-16T06:27:02.135Z,56.89
2023-06-16T06:37:17.692Z,56.25
2023-06-16T06:47:19.828Z,50.02
2023-06-16T06:57:21.989Z,52.36
2023-06-16T07:07:24.244Z,48.86
2023-06-16T07:17:29.292Z,50.07
2023-06-16T07:27:31.388Z,48.57
2023-06-16T07:37:34.028Z,47.85
2023-06-16T07:47:37.325Z,47.09
2023-06-16T07:57:40.833Z,48.24
2023-06-16T08:07:42.783Z,48.31
2023-06-16T08:17:45.191Z,47.18
2023-06-16T08:27:47.359Z,44.97
2023-06-16T08:37:51.787Z,45.76
2023-06-16T08:47:54.946Z,45.13
2023-06-16T08:57:59.657Z,43.41
2023-06-16T09:08:05.829Z,45.40
2023-06-16T09:18:09.337Z,47.20
2023-06-16T09:28:21.544Z,47.99
2023-06-16T09:38:24.343Z,46.32
2023-06-16T09:48:28.554Z,48.64
2023-06-16T09:58:41.639Z,48.00
2023-06-16T10:08:47.506Z,45.41
2023-06-16T10:18:58.564Z,42.32
2023-06-16T10:29:04.648Z,40.98
2023-06-16T10:39:15.041Z,43.20
2023-06-16T10:49:21.980Z,45.27
2023-06-16T10:59:25.215Z,44.76
2023-06-16T11:09:31.283Z,47.78
2023-06-16T11:19:39.472Z,44.97
2023-06-16T11:29:41.504Z,43.18
2023-06-16T11:39:51.735Z,44.46
2023-06-16T11:49:53.722Z,46.28
2023-06-16T11:59:56.875Z,50.17
2023-06-16T12:10:06.891Z,44.06
2023-06-16T12:20:13.861Z,45.15
2023-06-16T12:30:16.618Z,44.37
2023-06-16T12:40:29.395Z,42.00
2023-06-16T12:50:31.608Z,42.10
2023-06-16T13:00:35.114Z,41.05
2023-06-16T13:10:38.140Z,41.00
2023-06-16T13:20:40.479Z,41.13
2023-06-16T13:30:42.992Z,38.43
2023-06-16T13:40:47.102Z,38.19
2023-06-16T13:50:51.345Z,38.55
2023-06-16T14:00:55.494Z,38.10
2023-06-16T14:10:57.569Z,38.97
2023-06-16T14:21:00.620Z,39.00
2023-06-16T14:31:02.791Z,39.18
2023-06-16T14:41:04.860Z,41.23
2023-06-16T14:51:06.856Z,40.29
2023-06-16T15:01:09.970Z,43.28
2023-06-16T15:11:13.450Z,44.20
2023-06-16T15:21:15.617Z,44.42
2023-06-16T15:31:18.844Z,44.99
2023-06-16T15:41:20.877Z,46.04
2023-06-16T15:51:22.969Z,45.15
2023-06-16T16:01:27.249Z,44.40
2023-06-16T16:11:29.313Z,45.96
2023-06-16T16:21:31.664Z,46.15
2023-06-16T16:31:34.689Z,48.38
2023-06-16T16:41:36.947Z,48.57
2023-06-16T16:51:38.998Z,45.75
2023-06-16T17:01:42.163Z,44.54
2023-06-16T17:11:44.483Z,43.82
2023-06-16T17:21:48.543Z,45.01
2023-06-16T17:31:50.858Z,46.19
2023-06-16T17:41:54.943Z,48.83
2023-06-16T17:52:02.038Z,52.02
2023-06-16T18:02:04.328Z,53.20
2023-06-16T18:12:13.376Z,54.89
2023-06-16T18:22:16.544Z,57.97
2023-06-16T18:32:20.531Z,57.23
2023-06-16T18:42:23.913Z,58.33
2023-06-16T18:52:26.955Z,59.79
2023-06-16T19:02:29.300Z,61.02
2023-06-16T19:12:33.987Z,61.24
2023-06-16T19:22:38.028Z,62.15
2023-06-16T19:32:41.931Z,63.18
2023-06-16T19:42:44.070Z,63.03
2023-06-16T19:52:47.167Z,63.92
2023-06-16T20:02:50.424Z,63.52
2023-06-16T20:12:52.708Z,65.36
2023-06-16T20:22:54.732Z,66.17
2023-06-16T20:33:00.326Z,65.52
2023-06-16T20:43:04.845Z,64.48
2023-06-16T20:53:14.791Z,65.08
2023-06-16T21:03:23.342Z,65.40
2023-06-16T21:13:27.068Z,65.48
2023-06-16T21:23:31.306Z,67.08
2023-06-16T21:33:38.394Z,68.99
2023-06-16T21:43:44.366Z,78.42
2023-06-16T21:53:52.472Z,80.61
2023-06-16T22:03:54.437Z,81.34
2023-06-16T22:14:10.452Z,82.91
2023-06-16T22:24:12.882Z,86.33
2023-06-16T22:34:16.897Z,85.97
2023-06-16T22:44:21.515Z,86.67
2023-06-16T22:54:26.763Z,87.04
2023-06-16T23:04:29.832Z,85.49
2023-06-16T23:14:47.968Z,85.00
2023-06-16T23:24:49.864Z,84.94
2023-06-16T23:34:54.658Z,85.72
2023-06-16T23:45:21.437Z,86.38
2023-06-16T23:55:23.356Z,86.98
